sensor_id;sensor_type;location;lat;lon;timestamp;P1;P2;P0
76383;PMS7003;65204;48.606;7.598;2023-12-20T00:00:19;18.33;16.33;10.67
76383;PMS7003;65204;48.606;7.598;2023-12-20T00:00:49;16.33;13.33;9.67
76383;PMS7003;65204;48.606;7.598;2023-12-20T00:01:20;15.67;10.00;6.33
76383;PMS7003;65204;48.606;7.598;2023-12-20T00:01:51;8.50;8.50;7.00
76383;PMS7003;65204;48.606;7.598;2023-12-20T00:02:22;7.00;7.00;5.75
76383;PMS7003;65204;48.606;7.598;2023-12-20T00:02:53;12.80;9.60;7.40
76383;PMS7003;65204;48.606;7.598;2023-12-20T00:03:23;8.00;7.67;6.67
76383;PMS7003;65204;48.606;7.598;2023-12-20T00:03:54;6.00;6.00;5.25
76383;PMS7003;65204;48.606;7.598;2023-12-20T00:04:24;5.00;5.00;4.00
76383;PMS7003;65204;48.606;7.598;2023-12-20T00:04:54;11.33;11.33;9.33
76383;PMS7003;65204;48.606;7.598;2023-12-20T00:05:25;10.67;10.67;7.00
76383;PMS7003;65204;48.606;7.598;2023-12-20T00:05:55;11.33;10.00;7.67
76383;PMS7003;65204;48.606;7.598;2023-12-20T00:06:25;13.00;11.67;8.00
76383;PMS7003;65204;48.606;7.598;2023-12-20T00:06:56;8.67;4.33;2.67
76383;PMS7003;65204;48.606;7.598;2023-12-20T00:07:26;12.33;12.33;8.67
76383;PMS7003;65204;48.606;7.598;2023-12-20T00:07:56;10.67;10.67;8.33
76383;PMS7003;65204;48.606;7.598;2023-12-20T00:08:27;12.33;12.00;8.33
76383;PMS7003;65204;48.606;7.598;2023-12-20T00:08:57;10.00;10.00;6.33
76383;PMS7003;65204;48.606;7.598;2023-12-20T00:09:28;13.67;9.33;7.33
76383;PMS7003;65204;48.606;7.598;2023-12-20T00:09:58;10.33;10.33;7.33
76383;PMS7003;65204;48.606;7.598;2023-12-20T00:10:29;9.67;9.67;7.00
76383;PMS7003;65204;48.606;7.598;2023-12-20T00:10:59;10.67;8.67;7.00
76383;PMS7003;65204;48.606;7.598;2023-12-20T00:11:29;3.33;3.33;3.00
76383;PMS7003;65204;48.606;7.598;2023-12-20T00:12:00;13.00;7.67;6.33
76383;PMS7003;65204;48.606;7.598;2023-12-20T00:12:30;10.00;9.00;7.33
76383;PMS7003;65204;48.606;7.598;2023-12-20T00:13:00;12.33;10.33;7.33
76383;PMS7003;65204;48.606;7.598;2023-12-20T00:13:31;11.33;9.67;8.00
76383;PMS7003;65204;48.606;7.598;2023-12-20T00:14:01;10.33;7.33;4.00
76383;PMS7003;65204;48.606;7.598;2023-12-20T00:14:31;12.67;11.00;7.67
76383;PMS7003;65204;48.606;7.598;2023-12-20T00:15:02;13.00;13.00;9.33
76383;PMS7003;65204;48.606;7.598;2023-12-20T00:15:35;9.67;9.00;6.67
76383;PMS7003;65204;48.606;7.598;2023-12-20T00:16:06;13.25;9.50;7.25
76383;PMS7003;65204;48.606;7.598;2023-12-20T00:16:36;9.00;9.00;6.67
76383;PMS7003;65204;48.606;7.598;2023-12-20T00:17:07;17.67;10.67;7.33
76383;PMS7003;65204;48.606;7.598;2023-12-20T00:17:37;11.67;11.00;8.33
76383;PMS7003;65204;48.606;7.598;2023-12-20T00:18:08;9.00;9.00;5.33
76383;PMS7003;65204;48.606;7.598;2023-12-20T00:18:38;11.33;11.33;8.00
76383;PMS7003;65204;48.606;7.598;2023-12-20T00:19:09;13.00;10.00;8.33
76383;PMS7003;65204;48.606;7.598;2023-12-20T00:19:39;8.00;6.67;3.33
76383;PMS7003;65204;48.606;7.598;2023-12-20T00:20:10;12.00;12.00;8.50
76383;PMS7003;65204;48.606;7.598;2023-12-20T00:20:41;16.00;14.33;9.00
76383;PMS7003;65204;48.606;7.598;2023-12-20T00:21:11;12.33;12.33;10.00
76383;PMS7003;65204;48.606;7.598;2023-12-20T00:21:42;13.33;12.00;8.33
76383;PMS7003;65204;48.606;7.598;2023-12-20T00:22:12;14.00;12.33;9.00
76383;PMS7003;65204;48.606;7.598;2023-12-20T00:22:43;13.33;12.00;8.33
76383;PMS7003;65204;48.606;7.598;2023-12-20T00:23:13;7.33;7.33;5.00
76383;PMS7003;65204;48.606;7.598;2023-12-20T00:23:43;11.33;11.33;8.67
76383;PMS7003;65204;48.606;7.598;2023-12-20T00:24:13;12.67;11.67;8.67
76383;PMS7003;65204;48.606;7.598;2023-12-20T00:24:44;12.00;11.67;8.33
76383;PMS7003;65204;48.606;7.598;2023-12-20T00:25:14;11.33;9.67;7.00
76383;PMS7003;65204;48.606;7.598;2023-12-20T00:25:45;10.33;10.33;7.67
76383;PMS7003;65204;48.606;7.598;2023-12-20T00:26:15;6.00;6.00;5.00
76383;PMS7003;65204;48.606;7.598;2023-12-20T00:26:45;8.33;8.33;7.33
76383;PMS7003;65204;48.606;7.598;2023-12-20T00:27:16;9.00;8.75;6.25
76383;PMS7003;65204;48.606;7.598;2023-12-20T00:27:47;10.33;9.00;7.33
76383;PMS7003;65204;48.606;7.598;2023-12-20T00:28:17;7.33;7.33;6.00
76383;PMS7003;65204;48.606;7.598;2023-12-20T00:28:47;8.67;8.67;6.00
76383;PMS7003;65204;48.606;7.598;2023-12-20T00:29:18;10.33;10.00;8.00
76383;PMS7003;65204;48.606;7.598;2023-12-20T00:29:48;11.33;11.33;8.33
76383;PMS7003;65204;48.606;7.598;2023-12-20T00:30:20;11.75;10.75;8.50
76383;PMS7003;65204;48.606;7.598;2023-12-20T00:30:50;8.33;8.33;6.00
76383;PMS7003;65204;48.606;7.598;2023-12-20T00:31:20;11.00;11.00;8.33
76383;PMS7003;65204;48.606;7.598;2023-12-20T00:31:51;8.33;8.33;6.00
76383;PMS7003;65204;48.606;7.598;2023-12-20T00:32:21;13.67;11.00;7.67
76383;PMS7003;65204;48.606;7.598;2023-12-20T00:32:51;14.00;12.33;9.33
76383;PMS7003;65204;48.606;7.598;2023-12-20T00:33:22;6.00;6.00;3.00
76383;PMS7003;65204;48.606;7.598;2023-12-20T00:33:52;12.00;10.00;8.33
76383;PMS7003;65204;48.606;7.598;2023-12-20T00:34:22;11.00;11.00;7.33
76383;PMS7003;65204;48.606;7.598;2023-12-20T00:34:53;11.00;11.00;8.33
76383;PMS7003;65204;48.606;7.598;2023-12-20T00:35:23;9.33;8.67;6.67
76383;PMS7003;65204;48.606;7.598;2023-12-20T00:35:54;11.33;11.33;8.00
76383;PMS7003;65204;48.606;7.598;2023-12-20T00:36:24;11.00;11.00;8.67
76383;PMS7003;65204;48.606;7.598;2023-12-20T00:36:54;14.00;11.00;7.67
76383;PMS7003;65204;48.606;7.598;2023-12-20T00:37:25;9.00;8.67;7.33
76383;PMS7003;65204;48.606;7.598;2023-12-20T00:37:55;9.33;8.00;5.00
76383;PMS7003;65204;48.606;7.598;2023-12-20T00:38:25;8.67;8.67;6.33
76383;PMS7003;65204;48.606;7.598;2023-12-20T00:38:55;4.00;4.00;4.00
76383;PMS7003;65204;48.606;7.598;2023-12-20T00:39:27;8.75;7.00;5.00
76383;PMS7003;65204;48.606;7.598;2023-12-20T00:39:57;11.67;10.33;9.33
76383;PMS7003;65204;48.606;7.598;2023-12-20T00:40:27;9.33;7.33;5.67
76383;PMS7003;65204;48.606;7.598;2023-12-20T00:40:58;8.00;8.00;5.50
76383;PMS7003;65204;48.606;7.598;2023-12-20T00:41:28;5.33;5.33;4.00
76383;PMS7003;65204;48.606;7.598;2023-12-20T00:41:58;7.00;7.00;6.67
76383;PMS7003;65204;48.606;7.598;2023-12-20T00:42:28;8.00;8.00;6.33
76383;PMS7003;65204;48.606;7.598;2023-12-20T00:42:59;10.67;9.67;7.33
76383;PMS7003;65204;48.606;7.598;2023-12-20T00:43:29;9.67;9.67;5.00
76383;PMS7003;65204;48.606;7.598;2023-12-20T00:43:59;9.33;9.33;8.00
76383;PMS7003;65204;48.606;7.598;2023-12-20T00:44:30;12.00;10.33;8.67
76383;PMS7003;65204;48.606;7.598;2023-12-20T00:45:00;11.33;9.67;7.33
76383;PMS7003;65204;48.606;7.598;2023-12-20T00:45:30;9.33;9.33;5.67
76383;PMS7003;65204;48.606;7.598;2023-12-20T00:46:01;10.00;9.00;6.67
76383;PMS7003;65204;48.606;7.598;2023-12-20T00:46:31;7.67;7.67;6.33
76383;PMS7003;65204;48.606;7.598;2023-12-20T00:47:01;5.67;5.00;4.00
76383;PMS7003;65204;48.606;7.598;2023-12-20T00:47:32;8.00;8.00;5.67
76383;PMS7003;65204;48.606;7.598;2023-12-20T00:48:02;8.33;7.33;6.67
76383;PMS7003;65204;48.606;7.598;2023-12-20T00:48:33;8.33;8.33;6.33
76383;PMS7003;65204;48.606;7.598;2023-12-20T00:49:03;9.00;7.67;5.67
76383;PMS7003;65204;48.606;7.598;2023-12-20T00:49:33;11.00;9.67;7.67
76383;PMS7003;65204;48.606;7.598;2023-12-20T00:50:04;6.33;5.00;4.67
76383;PMS7003;65204;48.606;7.598;2023-12-20T00:50:35;7.67;7.67;6.00
76383;PMS7003;65204;48.606;7.598;2023-12-20T00:51:06;10.00;9.33;7.00
76383;PMS7003;65204;48.606;7.598;2023-12-20T00:51:36;9.67;9.67;8.00
76383;PMS7003;65204;48.606;7.598;2023-12-20T00:52:06;9.67;9.67;7.67
76383;PMS7003;65204;48.606;7.598;2023-12-20T00:52:36;11.00;9.00;7.00
76383;PMS7003;65204;48.606;7.598;2023-12-20T00:53:07;11.33;8.33;6.67
76383;PMS7003;65204;48.606;7.598;2023-12-20T00:53:37;10.00;9.00;7.00
76383;PMS7003;65204;48.606;7.598;2023-12-20T00:54:07;9.67;9.67;8.33
76383;PMS7003;65204;48.606;7.598;2023-12-20T00:54:39;10.75;9.00;7.25
76383;PMS7003;65204;48.606;7.598;2023-12-20T00:55:09;11.67;11.67;8.33
76383;PMS7003;65204;48.606;7.598;2023-12-20T00:55:39;10.33;8.67;6.33
76383;PMS7003;65204;48.606;7.598;2023-12-20T00:56:10;7.33;5.33;4.67
76383;PMS7003;65204;48.606;7.598;2023-12-20T00:56:40;7.00;7.00;4.33
76383;PMS7003;65204;48.606;7.598;2023-12-20T00:57:11;5.33;5.33;3.67
76383;PMS7003;65204;48.606;7.598;2023-12-20T00:57:41;6.33;6.33;5.00
76383;PMS7003;65204;48.606;7.598;2023-12-20T00:58:11;8.67;8.33;6.33
76383;PMS7003;65204;48.606;7.598;2023-12-20T00:58:42;10.67;8.67;6.00
76383;PMS7003;65204;48.606;7.598;2023-12-20T00:59:12;8.33;8.33;6.67
76383;PMS7003;65204;48.606;7.598;2023-12-20T00:59:42;6.67;6.67;5.00
76383;PMS7003;65204;48.606;7.598;2023-12-20T01:00:13;8.33;8.33;7.00
76383;PMS7003;65204;48.606;7.598;2023-12-20T01:00:44;10.33;9.00;6.33
76383;PMS7003;65204;48.606;7.598;2023-12-20T01:01:15;10.00;8.67;7.00
76383;PMS7003;65204;48.606;7.598;2023-12-20T01:01:45;7.75;6.50;5.25
76383;PMS7003;65204;48.606;7.598;2023-12-20T01:02:15;5.00;5.00;4.00
76383;PMS7003;65204;48.606;7.598;2023-12-20T01:02:46;12.00;10.33;8.33
76383;PMS7003;65204;48.606;7.598;2023-12-20T01:03:19;9.50;9.25;7.50
76383;PMS7003;65204;48.606;7.598;2023-12-20T01:03:49;9.33;9.33;7.67
76383;PMS7003;65204;48.606;7.598;2023-12-20T01:04:21;11.75;8.75;6.50
76383;PMS7003;65204;48.606;7.598;2023-12-20T01:04:51;8.67;8.67;5.67
76383;PMS7003;65204;48.606;7.598;2023-12-20T01:05:22;13.00;10.00;7.00
76383;PMS7003;65204;48.606;7.598;2023-12-20T01:05:54;9.00;8.50;5.75
76383;PMS7003;65204;48.606;7.598;2023-12-20T01:06:25;9.33;8.67;6.33
76383;PMS7003;65204;48.606;7.598;2023-12-20T01:06:55;10.33;8.67;6.33
76383;PMS7003;65204;48.606;7.598;2023-12-20T01:07:25;8.33;8.33;6.67
76383;PMS7003;65204;48.606;7.598;2023-12-20T01:07:56;6.00;6.00;5.00
76383;PMS7003;65204;48.606;7.598;2023-12-20T01:08:26;5.67;4.33;4.00
76383;PMS7003;65204;48.606;7.598;2023-12-20T01:08:56;13.33;7.67;6.33
76383;PMS7003;65204;48.606;7.598;2023-12-20T01:09:27;9.33;9.33;7.33
76383;PMS7003;65204;48.606;7.598;2023-12-20T01:09:57;8.75;8.75;5.00
76383;PMS7003;65204;48.606;7.598;2023-12-20T01:10:27;10.75;9.75;7.25
76383;PMS7003;65204;48.606;7.598;2023-12-20T01:10:59;8.75;7.50;5.00
76383;PMS7003;65204;48.606;7.598;2023-12-20T01:11:29;8.00;7.33;6.33
76383;PMS7003;65204;48.606;7.598;2023-12-20T01:11:59;8.00;8.00;6.33
76383;PMS7003;65204;48.606;7.598;2023-12-20T01:12:30;7.33;6.33;5.00
76383;PMS7003;65204;48.606;7.598;2023-12-20T01:13:00;8.00;5.67;5.00
76383;PMS7003;65204;48.606;7.598;2023-12-20T01:13:30;6.33;6.33;5.00
76383;PMS7003;65204;48.606;7.598;2023-12-20T01:14:01;9.00;7.67;6.00
76383;PMS7003;65204;48.606;7.598;2023-12-20T01:14:31;7.33;7.33;6.00
76383;PMS7003;65204;48.606;7.598;2023-12-20T01:15:01;5.33;5.33;5.00
76383;PMS7003;65204;48.606;7.598;2023-12-20T01:15:32;8.33;8.33;6.33
76383;PMS7003;65204;48.606;7.598;2023-12-20T01:16:02;8.67;8.67;6.00
76383;PMS7003;65204;48.606;7.598;2023-12-20T01:16:33;6.50;6.50;4.75
76383;PMS7003;65204;48.606;7.598;2023-12-20T01:17:04;8.33;8.33;6.33
76383;PMS7003;65204;48.606;7.598;2023-12-20T01:17:34;8.00;8.00;6.33
76383;PMS7003;65204;48.606;7.598;2023-12-20T01:18:05;9.00;8.00;7.00
76383;PMS7003;65204;48.606;7.598;2023-12-20T01:18:36;8.00;7.33;6.00
76383;PMS7003;65204;48.606;7.598;2023-12-20T01:19:06;9.33;9.33;7.33
76383;PMS7003;65204;48.606;7.598;2023-12-20T01:19:36;5.00;5.00;4.50
76383;PMS7003;65204;48.606;7.598;2023-12-20T01:20:07;7.67;3.00;2.00
76383;PMS7003;65204;48.606;7.598;2023-12-20T01:20:38;7.25;7.25;5.75
76383;PMS7003;65204;48.606;7.598;2023-12-20T01:21:08;6.50;6.50;5.25
76383;PMS7003;65204;48.606;7.598;2023-12-20T01:21:39;8.25;6.50;5.25
76383;PMS7003;65204;48.606;7.598;2023-12-20T01:22:10;8.00;7.67;5.33
76383;PMS7003;65204;48.606;7.598;2023-12-20T01:22:40;6.33;5.67;4.67
76383;PMS7003;65204;48.606;7.598;2023-12-20T01:23:12;5.00;5.00;4.00
76383;PMS7003;65204;48.606;7.598;2023-12-20T01:23:43;9.33;7.00;6.00
76383;PMS7003;65204;48.606;7.598;2023-12-20T01:24:13;7.67;5.00;4.67
76383;PMS7003;65204;48.606;7.598;2023-12-20T01:24:43;7.50;7.50;5.50
76383;PMS7003;65204;48.606;7.598;2023-12-20T01:25:14;5.75;5.75;5.00
76383;PMS7003;65204;48.606;7.598;2023-12-20T01:25:44;9.33;8.33;7.33
76383;PMS7003;65204;48.606;7.598;2023-12-20T01:26:14;8.00;8.00;6.00
76383;PMS7003;65204;48.606;7.598;2023-12-20T01:26:45;7.25;6.00;5.00
76383;PMS7003;65204;48.606;7.598;2023-12-20T01:27:15;5.25;5.25;4.00
76383;PMS7003;65204;48.606;7.598;2023-12-20T01:27:45;6.33;5.00;4.00
76383;PMS7003;65204;48.606;7.598;2023-12-20T01:28:16;6.00;6.00;5.00
76383;PMS7003;65204;48.606;7.598;2023-12-20T01:28:47;8.25;6.75;5.50
76383;PMS7003;65204;48.606;7.598;2023-12-20T01:29:17;6.25;4.75;4.50
76383;PMS7003;65204;48.606;7.598;2023-12-20T01:29:48;7.00;7.00;5.00
76383;PMS7003;65204;48.606;7.598;2023-12-20T01:30:18;9.33;6.00;4.33
76383;PMS7003;65204;48.606;7.598;2023-12-20T01:30:49;9.00;9.00;7.33
76383;PMS7003;65204;48.606;7.598;2023-12-20T01:31:19;9.33;8.33;5.33
76383;PMS7003;65204;48.606;7.598;2023-12-20T01:31:49;10.67;8.00;6.67
76383;PMS7003;65204;48.606;7.598;2023-12-20T01:32:20;7.67;7.67;6.33
76383;PMS7003;65204;48.606;7.598;2023-12-20T01:32:50;6.33;6.00;5.00
76383;PMS7003;65204;48.606;7.598;2023-12-20T01:33:20;8.00;8.00;6.00
76383;PMS7003;65204;48.606;7.598;2023-12-20T01:33:51;6.75;6.75;5.50
76383;PMS7003;65204;48.606;7.598;2023-12-20T01:34:21;5.50;5.50;5.00
76383;PMS7003;65204;48.606;7.598;2023-12-20T01:34:51;7.75;7.75;6.00
76383;PMS7003;65204;48.606;7.598;2023-12-20T01:35:22;5.00;5.00;4.00
76383;PMS7003;65204;48.606;7.598;2023-12-20T01:35:52;9.00;9.00;8.00
76383;PMS7003;65204;48.606;7.598;2023-12-20T01:36:22;9.00;9.00;6.00
76383;PMS7003;65204;48.606;7.598;2023-12-20T01:36:53;12.33;9.33;6.67
76383;PMS7003;65204;48.606;7.598;2023-12-20T01:37:23;10.33;10.33;7.67
76383;PMS7003;65204;48.606;7.598;2023-12-20T01:37:55;8.00;6.25;5.25
76383;PMS7003;65204;48.606;7.598;2023-12-20T01:38:26;11.00;9.00;6.25
76383;PMS7003;65204;48.606;7.598;2023-12-20T01:38:57;7.00;7.00;4.67
76383;PMS7003;65204;48.606;7.598;2023-12-20T01:39:27;7.25;7.25;6.00
76383;PMS7003;65204;48.606;7.598;2023-12-20T01:39:57;8.00;8.00;6.33
76383;PMS7003;65204;48.606;7.598;2023-12-20T01:40:28;7.25;7.25;5.00
76383;PMS7003;65204;48.606;7.598;2023-12-20T01:40:59;10.00;10.00;7.00
76383;PMS7003;65204;48.606;7.598;2023-12-20T01:41:30;8.25;8.25;6.00
76383;PMS7003;65204;48.606;7.598;2023-12-20T01:42:00;5.67;5.67;4.00
76383;PMS7003;65204;48.606;7.598;2023-12-20T01:42:30;12.33;9.67;7.00
76383;PMS7003;65204;48.606;7.598;2023-12-20T01:43:10;8.00;8.00;6.00
76383;PMS7003;65204;48.606;7.598;2023-12-20T01:43:42;10.00;9.00;7.25
76383;PMS7003;65204;48.606;7.598;2023-12-20T01:44:12;14.33;12.67;7.67
76383;PMS7003;65204;48.606;7.598;2023-12-20T01:44:43;8.67;8.67;7.33
76383;PMS7003;65204;48.606;7.598;2023-12-20T01:45:13;5.67;5.67;4.33
76383;PMS7003;65204;48.606;7.598;2023-12-20T01:45:44;4.67;4.67;3.00
76383;PMS7003;65204;48.606;7.598;2023-12-20T01:46:14;6.33;6.00;5.33
76383;PMS7003;65204;48.606;7.598;2023-12-20T01:46:45;6.67;6.67;5.00
76383;PMS7003;65204;48.606;7.598;2023-12-20T01:47:16;9.75;9.50;8.00
76383;PMS7003;65204;48.606;7.598;2023-12-20T01:47:47;8.00;8.00;6.00
76383;PMS7003;65204;48.606;7.598;2023-12-20T01:48:17;5.67;5.67;4.67
76383;PMS7003;65204;48.606;7.598;2023-12-20T01:48:48;8.33;8.33;6.00
76383;PMS7003;65204;48.606;7.598;2023-12-20T01:49:19;7.33;7.33;6.00
76383;PMS7003;65204;48.606;7.598;2023-12-20T01:49:49;7.67;7.67;5.00
76383;PMS7003;65204;48.606;7.598;2023-12-20T01:50:20;3.00;3.00;2.00
76383;PMS7003;65204;48.606;7.598;2023-12-20T01:50:51;7.20;7.20;5.00
76383;PMS7003;65204;48.606;7.598;2023-12-20T01:51:22;6.75;6.75;6.00
76383;PMS7003;65204;48.606;7.598;2023-12-20T01:51:53;8.00;6.00;5.00
76383;PMS7003;65204;48.606;7.598;2023-12-20T01:52:23;9.75;7.75;5.75
76383;PMS7003;65204;48.606;7.598;2023-12-20T01:52:56;7.80;7.80;6.60
76383;PMS7003;65204;48.606;7.598;2023-12-20T01:53:30;10.75;9.50;7.50
76383;PMS7003;65204;48.606;7.598;2023-12-20T01:54:02;8.20;8.20;6.20
76383;PMS7003;65204;48.606;7.598;2023-12-20T01:54:34;7.25;7.25;5.25
76383;PMS7003;65204;48.606;7.598;2023-12-20T01:55:06;4.20;2.80;2.20
76383;PMS7003;65204;48.606;7.598;2023-12-20T01:55:42;7.50;7.50;5.50
76383;PMS7003;65204;48.606;7.598;2023-12-20T01:56:14;9.25;7.75;6.00
76383;PMS7003;65204;48.606;7.598;2023-12-20T01:56:45;9.75;8.25;5.75
76383;PMS7003;65204;48.606;7.598;2023-12-20T01:57:16;9.25;7.75;5.00
76383;PMS7003;65204;48.606;7.598;2023-12-20T01:57:46;6.00;6.00;5.00
76383;PMS7003;65204;48.606;7.598;2023-12-20T01:58:17;9.33;8.33;5.67
76383;PMS7003;65204;48.606;7.598;2023-12-20T01:58:49;8.50;5.50;4.50
76383;PMS7003;65204;48.606;7.598;2023-12-20T01:59:19;10.00;9.33;7.33
76383;PMS7003;65204;48.606;7.598;2023-12-20T01:59:51;7.25;7.25;4.25
76383;PMS7003;65204;48.606;7.598;2023-12-20T02:00:22;10.67;8.33;6.00
76383;PMS7003;65204;48.606;7.598;2023-12-20T02:00:53;9.50;9.50;7.50
76383;PMS7003;65204;48.606;7.598;2023-12-20T02:01:24;7.00;7.00;6.00
76383;PMS7003;65204;48.606;7.598;2023-12-20T02:01:55;9.25;7.75;6.00
76383;PMS7003;65204;48.606;7.598;2023-12-20T02:02:26;8.00;8.00;6.00
76383;PMS7003;65204;48.606;7.598;2023-12-20T02:02:59;11.25;8.50;5.50
76383;PMS7003;65204;48.606;7.598;2023-12-20T02:03:31;7.25;7.25;5.00
76383;PMS7003;65204;48.606;7.598;2023-12-20T02:04:02;7.33;7.33;6.00
76383;PMS7003;65204;48.606;7.598;2023-12-20T02:04:33;4.67;4.67;4.00
76383;PMS7003;65204;48.606;7.598;2023-12-20T02:05:03;5.00;5.00;4.00
76383;PMS7003;65204;48.606;7.598;2023-12-20T02:05:35;5.25;5.25;5.00
76383;PMS7003;65204;48.606;7.598;2023-12-20T02:06:07;7.75;7.75;6.25
76383;PMS7003;65204;48.606;7.598;2023-12-20T02:06:38;7.25;7.25;5.00
76383;PMS7003;65204;48.606;7.598;2023-12-20T02:07:10;8.00;8.00;6.00
76383;PMS7003;65204;48.606;7.598;2023-12-20T02:07:41;7.50;7.50;6.00
76383;PMS7003;65204;48.606;7.598;2023-12-20T02:08:12;7.25;5.75;5.00
76383;PMS7003;65204;48.606;7.598;2023-12-20T02:08:42;12.00;6.50;5.50
76383;PMS7003;65204;48.606;7.598;2023-12-20T02:09:12;8.00;6.00;5.67
76383;PMS7003;65204;48.606;7.598;2023-12-20T02:09:43;8.33;8.33;6.00
76383;PMS7003;65204;48.606;7.598;2023-12-20T02:10:13;6.00;6.00;5.00
76383;PMS7003;65204;48.606;7.598;2023-12-20T02:10:43;4.00;4.00;3.00
76383;PMS7003;65204;48.606;7.598;2023-12-20T02:11:14;7.25;5.50;4.50
76383;PMS7003;65204;48.606;7.598;2023-12-20T02:11:45;5.00;5.00;3.33
76383;PMS7003;65204;48.606;7.598;2023-12-20T02:12:15;6.33;6.33;4.67
76383;PMS7003;65204;48.606;7.598;2023-12-20T02:12:45;6.25;6.25;4.75
76383;PMS7003;65204;48.606;7.598;2023-12-20T02:13:16;8.00;7.33;5.00
76383;PMS7003;65204;48.606;7.598;2023-12-20T02:13:46;7.75;7.50;4.75
76383;PMS7003;65204;48.606;7.598;2023-12-20T02:14:16;10.00;6.25;5.00
76383;PMS7003;65204;48.606;7.598;2023-12-20T02:14:47;5.75;5.75;4.25
76383;PMS7003;65204;48.606;7.598;2023-12-20T02:15:17;8.50;7.25;5.00
76383;PMS7003;65204;48.606;7.598;2023-12-20T02:15:48;8.25;7.25;6.00
76383;PMS7003;65204;48.606;7.598;2023-12-20T02:16:18;6.00;6.00;5.00
76383;PMS7003;65204;48.606;7.598;2023-12-20T02:16:49;6.25;5.00;5.00
76383;PMS7003;65204;48.606;7.598;2023-12-20T02:17:19;6.25;6.00;5.00
76383;PMS7003;65204;48.606;7.598;2023-12-20T02:17:50;5.67;5.67;4.33
76383;PMS7003;65204;48.606;7.598;2023-12-20T02:18:20;10.33;9.00;6.67
76383;PMS7003;65204;48.606;7.598;2023-12-20T02:18:51;7.67;7.67;6.00
76383;PMS7003;65204;48.606;7.598;2023-12-20T02:19:21;10.00;7.25;5.00
76383;PMS7003;65204;48.606;7.598;2023-12-20T02:19:52;7.75;7.75;4.50
76383;PMS7003;65204;48.606;7.598;2023-12-20T02:20:22;7.00;5.00;4.00
76383;PMS7003;65204;48.606;7.598;2023-12-20T02:20:52;5.00;5.00;4.00
76383;PMS7003;65204;48.606;7.598;2023-12-20T02:21:32;7.33;7.33;6.00
76383;PMS7003;65204;48.606;7.598;2023-12-20T02:22:10;6.00;6.00;5.00
76383;PMS7003;65204;48.606;7.598;2023-12-20T02:22:41;8.25;7.25;4.50
76383;PMS7003;65204;48.606;7.598;2023-12-20T02:23:12;6.00;6.00;4.67
76383;PMS7003;65204;48.606;7.598;2023-12-20T02:23:42;4.50;4.50;4.00
76383;PMS7003;65204;48.606;7.598;2023-12-20T02:24:12;5.00;5.00;4.50
76383;PMS7003;65204;48.606;7.598;2023-12-20T02:24:43;9.00;9.00;7.33
76383;PMS7003;65204;48.606;7.598;2023-12-20T02:25:13;4.00;4.00;3.75
76383;PMS7003;65204;48.606;7.598;2023-12-20T02:25:43;5.00;5.00;4.00
76383;PMS7003;65204;48.606;7.598;2023-12-20T02:26:14;8.00;8.00;5.00
76383;PMS7003;65204;48.606;7.598;2023-12-20T02:26:45;7.50;7.50;6.25
76383;PMS7003;65204;48.606;7.598;2023-12-20T02:27:15;16.00;10.00;8.00
76383;PMS7003;65204;48.606;7.598;2023-12-20T02:27:48;9.25;9.25;7.75
76383;PMS7003;65204;48.606;7.598;2023-12-20T02:28:19;19.25;17.75;10.50
76383;PMS7003;65204;48.606;7.598;2023-12-20T02:28:51;12.25;12.25;9.25
76383;PMS7003;65204;48.606;7.598;2023-12-20T02:29:22;11.67;11.67;8.33
76383;PMS7003;65204;48.606;7.598;2023-12-20T02:29:52;11.00;8.33;5.00
76383;PMS7003;65204;48.606;7.598;2023-12-20T02:30:23;6.00;5.75;4.75
76383;PMS7003;65204;48.606;7.598;2023-12-20T02:30:53;9.00;8.00;7.00
76383;PMS7003;65204;48.606;7.598;2023-12-20T02:31:23;8.33;8.33;7.33
76383;PMS7003;65204;48.606;7.598;2023-12-20T02:31:54;7.00;7.00;5.25
76383;PMS7003;65204;48.606;7.598;2023-12-20T02:32:24;8.00;6.33;5.00
76383;PMS7003;65204;48.606;7.598;2023-12-20T02:33:01;5.00;5.00;4.00
76383;PMS7003;65204;48.606;7.598;2023-12-20T02:33:37;5.60;5.60;4.00
76383;PMS7003;65204;48.606;7.598;2023-12-20T02:34:09;5.20;3.80;3.40
76383;PMS7003;65204;48.606;7.598;2023-12-20T02:34:39;7.25;5.25;4.00
76383;PMS7003;65204;48.606;7.598;2023-12-20T02:35:10;4.25;4.25;3.00
76383;PMS7003;65204;48.606;7.598;2023-12-20T02:35:40;9.75;8.25;6.00
76383;PMS7003;65204;48.606;7.598;2023-12-20T02:36:10;4.67;4.67;4.33
76383;PMS7003;65204;48.606;7.598;2023-12-20T02:36:41;6.33;4.67;4.00
76383;PMS7003;65204;48.606;7.598;2023-12-20T02:37:11;6.00;6.00;5.25
76383;PMS7003;65204;48.606;7.598;2023-12-20T02:37:41;7.25;5.00;4.25
76383;PMS7003;65204;48.606;7.598;2023-12-20T02:38:12;5.25;5.25;5.00
76383;PMS7003;65204;48.606;7.598;2023-12-20T02:38:42;7.00;5.00;4.00
76383;PMS7003;65204;48.606;7.598;2023-12-20T02:39:13;5.75;5.75;4.50
76383;PMS7003;65204;48.606;7.598;2023-12-20T02:39:44;5.25;5.25;4.00
76383;PMS7003;65204;48.606;7.598;2023-12-20T02:40:14;7.33;5.00;4.00
76383;PMS7003;65204;48.606;7.598;2023-12-20T02:40:44;9.33;6.00;5.00
76383;PMS7003;65204;48.606;7.598;2023-12-20T02:41:15;9.00;6.00;5.25
76383;PMS7003;65204;48.606;7.598;2023-12-20T02:41:48;5.00;5.00;4.00
76383;PMS7003;65204;48.606;7.598;2023-12-20T02:42:18;4.75;4.75;4.00
76383;PMS7003;65204;48.606;7.598;2023-12-20T02:42:48;5.25;5.25;4.25
76383;PMS7003;65204;48.606;7.598;2023-12-20T02:43:19;5.50;5.50;4.50
76383;PMS7003;65204;48.606;7.598;2023-12-20T02:43:49;3.50;3.25;2.25
76383;PMS7003;65204;48.606;7.598;2023-12-20T02:44:19;4.50;4.00;3.25
76383;PMS7003;65204;48.606;7.598;2023-12-20T02:44:50;4.75;4.75;4.00
76383;PMS7003;65204;48.606;7.598;2023-12-20T02:45:20;6.25;4.75;3.00
76383;PMS7003;65204;48.606;7.598;2023-12-20T02:45:50;3.00;3.00;2.33
76383;PMS7003;65204;48.606;7.598;2023-12-20T02:46:21;7.25;5.00;4.00
76383;PMS7003;65204;48.606;7.598;2023-12-20T02:46:51;1.75;1.75;1.25
76383;PMS7003;65204;48.606;7.598;2023-12-20T02:47:21;4.25;3.50;3.00
76383;PMS7003;65204;48.606;7.598;2023-12-20T02:47:52;7.25;5.00;4.00
76383;PMS7003;65204;48.606;7.598;2023-12-20T02:48:22;5.25;5.00;4.00
76383;PMS7003;65204;48.606;7.598;2023-12-20T02:48:52;3.75;3.75;3.00
76383;PMS7003;65204;48.606;7.598;2023-12-20T02:49:23;4.00;4.00;3.00
76383;PMS7003;65204;48.606;7.598;2023-12-20T02:49:53;3.25;3.25;2.75
76383;PMS7003;65204;48.606;7.598;2023-12-20T02:50:23;3.00;3.00;3.00
76383;PMS7003;65204;48.606;7.598;2023-12-20T02:50:54;8.25;6.25;4.25
76383;PMS7003;65204;48.606;7.598;2023-12-20T02:51:24;2.00;2.00;2.00
76383;PMS7003;65204;48.606;7.598;2023-12-20T02:51:55;4.00;4.00;3.00
76383;PMS7003;65204;48.606;7.598;2023-12-20T02:52:25;5.00;5.00;4.00
76383;PMS7003;65204;48.606;7.598;2023-12-20T02:52:55;4.00;4.00;3.75
76383;PMS7003;65204;48.606;7.598;2023-12-20T02:53:26;4.25;4.00;3.00
76383;PMS7003;65204;48.606;7.598;2023-12-20T02:53:56;5.00;3.25;2.25
76383;PMS7003;65204;48.606;7.598;2023-12-20T02:54:26;3.75;3.75;3.00
76383;PMS7003;65204;48.606;7.598;2023-12-20T02:54:57;3.50;3.00;3.00
76383;PMS7003;65204;48.606;7.598;2023-12-20T02:55:27;4.25;4.25;3.25
76383;PMS7003;65204;48.606;7.598;2023-12-20T02:55:57;3.75;3.75;2.50
76383;PMS7003;65204;48.606;7.598;2023-12-20T02:56:28;3.75;3.75;3.00
76383;PMS7003;65204;48.606;7.598;2023-12-20T02:56:58;3.00;3.00;3.00
76383;PMS7003;65204;48.606;7.598;2023-12-20T02:57:28;5.25;4.00;3.50
76383;PMS7003;65204;48.606;7.598;2023-12-20T02:57:59;2.00;2.00;1.25
76383;PMS7003;65204;48.606;7.598;2023-12-20T02:58:29;4.00;3.50;3.00